INFORMAÇÕES METEOROLÓGICAS
METAR FOR SBAT
ADDS - METARS form results

(0553 UTC 06 April 2020)
Data provider http://aviationweather.gov/metar/data/
 
Forecast for: SBAT (ALTA FLORESTA , BR)
Text: TAF SBAT 052100Z 0600/0612 33005KT CAVOK TN25/0609Z TX27/0612Z RMK PDZ
Forecast period: 0000 to 1200 UTC 06 April 2020
Forecast type: FROM: standard forecast or significant change
Winds: from the NNW (330 degrees) at 6 MPH (5 knots; 2.6 m/s)
Visibility: 6 or more miles 10+ km)
Ceiling: unknown
Clouds: missing
Weather: no significant weather forecast for this period

 MAPA DO AEROPORTO

 INFORMAÇÕES DA PISTA
Pista 3 Tamanho da pista 8202 ft Largura da pista 98 ft
Elevação da pista 0 ft Ranhura da pista 0 ft Proa da pista 0
Pista 21 Tamanho da pista 8202 ft Largura da pista 98 ft
Elevação da pista 0 ft Ranhura da pista 0 ft Proa da pista 0

 FREQUÊNCIAS DO AEROPORTO
Tipo RDO Nome RDO Frequência 126.6 MHZ

 AUXÍLIOS DE NAVEGAÇÃO PRÓXIMOS AO AEROPORTO
Tipo VOR-DME Nome Alta Floresta Frequência 113400 KHZ
Tipo NDB Nome Alta Floresta Frequência 245 KHZ



Powered by Mercosul Lnhas Aereas